Time,TemperatureF,DewpointF,PressureIn,WindDirection,WindDirectionDegrees,WindSpeedMPH,WindSpeedGustMPH,Humidity,HourlyPrecipIn,Conditions,Clouds,dailyrainin,SoftwareType,DateUTC
2013-05-19 00:01:00,64.0,62.5,30.19,SSW,213,0.0,0.0,95,0.00,,,0.29,Wunderground v.1.13,2013-05-19 04:01:00,
2013-05-19 00:02:00,64.0,62.5,30.19,SSW,213,0.0,0.0,95,0.00,,,0.29,Wunderground v.1.13,2013-05-19 04:02:00,
2013-05-19 00:03:00,64.0,62.5,30.19,SSW,213,0.0,0.0,95,0.00,,,0.29,Wunderground v.1.13,2013-05-19 04:03:00,
2013-05-19 00:05:00,64.1,62.6,30.19,SSW,213,0.0,0.0,95,0.00,,,0.29,Wunderground v.1.13,2013-05-19 04:05:00,
2013-05-19 00:10:00,64.1,62.6,30.20,SSW,213,0.0,0.0,95,0.00,,,0.29,Wunderground v.1.13,2013-05-19 04:10:00,
2013-05-19 00:15:00,64.2,62.7,30.20,SSW,213,0.0,0.0,95,0.00,,,0.00,Wunderground v.1.13,2013-05-19 04:15:00,
2013-05-19 00:20:00,64.1,62.6,30.19,SSW,213,0.0,0.0,95,0.00,,,0.00,Wunderground v.1.13,2013-05-19 04:20:00,
2013-05-19 00:25:00,64.1,62.6,30.20,SSW,213,0.0,0.0,95,0.00,,,0.00,Wunderground v.1.13,2013-05-19 04:25:00,
2013-05-19 00:30:00,64.1,62.6,30.19,SSW,213,0.0,0.0,95,0.00,,,0.00,Wunderground v.1.13,2013-05-19 04:30:00,
2013-05-19 00:35:00,64.1,62.6,30.19,SSW,213,0.0,0.0,95,0.00,,,0.00,Wunderground v.1.13,2013-05-19 04:35:00,
2013-05-19 00:41:00,64.1,62.6,30.18,SSW,213,0.0,0.0,95,0.00,,,0.00,Wunderground v.1.13,2013-05-19 04:41:00,
2013-05-19 00:46:00,64.1,62.6,30.18,SSW,213,0.0,0.0,95,0.00,,,0.00,Wunderground v.1.13,2013-05-19 04:46:00,
2013-05-19 00:51:00,64.2,62.7,30.18,West,270,0.0,2.0,95,0.00,,,0.00,Wunderground v.1.13,2013-05-19 04:51:00,
2013-05-19 00:56:00,64.1,62.6,30.18,West,270,0.0,0.0,95,0.00,,,0.00,Wunderground v.1.13,2013-05-19 04:56:00,
2013-05-19 01:01:00,64.1,62.6,30.18,West,264,0.0,0.0,95,0.00,,,0.00,Wunderground v.1.13,2013-05-19 05:01:00,
2013-05-19 01:06:00,64.0,62.5,30.18,West,264,0.0,0.0,95,0.00,,,0.00,Wunderground v.1.13,2013-05-19 05:06:00,
2013-05-19 01:11:00,64.0,62.8,30.19,SSE,148,1.0,1.0,96,0.00,,,0.00,Wunderground v.1.13,2013-05-19 05:11:00,
2013-05-19 01:16:00,64.0,62.8,30.19,South,174,0.0,0.0,96,0.00,,,0.00,Wunderground v.1.13,2013-05-19 05:16:00,
2013-05-19 01:22:00,64.1,62.9,30.18,South,179,0.0,0.0,96,0.00,,,0.00,Wunderground v.1.13,2013-05-19 05:22:00,
2013-05-19 01:27:00,64.1,62.9,30.19,SSE,164,1.0,1.0,96,0.00,,,0.00,Wunderground v.1.13,2013-05-19 05:27:00,
2013-05-19 01:32:00,64.2,63.0,30.19,SSE,166,0.0,1.0,96,0.00,,,0.00,Wunderground v.1.13,2013-05-19 05:32:00,
2013-05-19 01:37:00,64.3,63.1,30.18,SSE,168,0.0,0.0,96,0.00,,,0.00,Wunderground v.1.13,2013-05-19 05:37:00,
2013-05-19 01:42:00,64.3,63.1,30.18,SSE,168,0.0,0.0,96,0.00,,,0.00,Wunderground v.1.13,2013-05-19 05:42:00,
2013-05-19 01:48:00,64.3,63.1,30.18,SSE,168,0.0,0.0,96,0.00,,,0.00,Wunderground v.1.13,2013-05-19 05:48:00,
2013-05-19 01:53:00,64.4,63.2,30.18,SSE,168,0.0,0.0,96,0.00,,,0.00,Wunderground v.1.13,2013-05-19 05:53:00,
2013-05-19 01:58:00,64.4,63.2,30.18,South,184,0.0,0.0,96,0.00,,,0.00,Wunderground v.1.13,2013-05-19 05:58:00,
2013-05-19 02:03:00,64.4,63.2,30.18,South,184,0.0,0.0,96,0.00,,,0.00,Wunderground v.1.13,2013-05-19 06:03:00,
2013-05-19 02:08:00,64.4,63.2,30.18,WSW,243,0.0,2.0,96,0.00,,,0.00,Wunderground v.1.13,2013-05-19 06:08:00,
2013-05-19 02:13:00,64.4,63.2,30.18,WSW,240,0.0,1.0,96,0.00,,,0.00,Wunderground v.1.13,2013-05-19 06:13:00,
2013-05-19 02:18:00,64.3,63.1,30.17,WSW,240,0.0,1.0,96,0.00,,,0.00,Wunderground v.1.13,2013-05-19 06:18:00,
2013-05-19 02:23:00,64.4,63.2,30.16,WSW,240,0.0,0.0,96,0.00,,,0.00,Wunderground v.1.13,2013-05-19 06:23:00,
2013-05-19 02:28:00,64.3,63.1,30.16,WSW,240,0.0,1.0,96,0.00,,,0.00,Wunderground v.1.13,2013-05-19 06:28:00,
2013-05-19 02:33:00,64.3,63.1,30.16,WSW,240,0.0,1.0,96,0.00,,,0.00,Wunderground v.1.13,2013-05-19 06:33:00,
2013-05-19 02:38:00,64.2,63.0,30.16,WSW,240,0.0,1.0,96,0.00,,,0.00,Wunderground v.1.13,2013-05-19 06:38:00,
2013-05-19 02:43:00,64.1,62.9,30.16,SW,228,0.0,1.0,96,0.00,,,0.00,Wunderground v.1.13,2013-05-19 06:43:00,
2013-05-19 02:48:00,64.1,62.9,30.17,SW,228,0.0,0.0,96,0.00,,,0.00,Wunderground v.1.13,2013-05-19 06:48:00,
2013-05-19 02:53:00,64.0,62.8,30.16,SW,228,0.0,0.0,96,0.00,,,0.00,Wunderground v.1.13,2013-05-19 06:53:00,
2013-05-19 02:58:00,64.0,63.1,30.16,SW,228,0.0,0.0,97,0.00,,,0.00,Wunderground v.1.13,2013-05-19 06:58:00,
2013-05-19 03:03:00,63.9,63.0,30.16,SW,228,0.0,0.0,97,0.00,,,0.00,Wunderground v.1.13,2013-05-19 07:03:00,
2013-05-19 03:08:00,63.8,62.9,30.15,SW,228,0.0,0.0,97,0.00,,,0.00,Wunderground v.1.13,2013-05-19 07:08:00,
2013-05-19 03:13:00,63.8,62.9,30.15,SW,228,0.0,1.0,97,0.00,,,0.00,Wunderground v.1.13,2013-05-19 07:13:00,
2013-05-19 03:18:00,63.7,62.8,30.15,SW,228,0.0,0.0,97,0.00,,,0.00,Wunderground v.1.13,2013-05-19 07:18:00,
2013-05-19 03:23:00,63.7,62.8,30.16,SW,227,0.0,0.0,97,0.00,,,0.00,Wunderground v.1.13,2013-05-19 07:23:00,
2013-05-19 03:28:00,63.7,62.8,30.16,SW,227,0.0,0.0,97,0.00,,,0.00,Wunderground v.1.13,2013-05-19 07:28:00,
2013-05-19 03:33:00,63.7,62.8,30.16,SW,227,0.0,0.0,97,0.00,,,0.00,Wunderground v.1.13,2013-05-19 07:33:00,
2013-05-19 03:38:00,63.7,62.8,30.16,SW,227,0.0,0.0,97,0.00,,,0.00,Wunderground v.1.13,2013-05-19 07:38:00,
2013-05-19 03:43:00,63.7,62.8,30.15,SW,227,0.0,1.0,97,0.00,,,0.00,Wunderground v.1.13,2013-05-19 07:43:00,
2013-05-19 03:48:00,63.7,62.8,30.16,SW,227,0.0,0.0,97,0.00,,,0.00,Wunderground v.1.13,2013-05-19 07:48:00,
2013-05-19 03:53:00,63.8,62.9,30.16,SW,227,0.0,0.0,97,0.00,,,0.00,Wunderground v.1.13,2013-05-19 07:53:00,
2013-05-19 03:58:00,63.8,62.9,30.15,SW,227,0.0,0.0,97,0.00,,,0.00,Wunderground v.1.13,2013-05-19 07:58:00,
2013-05-19 04:03:00,63.8,62.9,30.15,SW,227,0.0,0.0,97,0.00,,,0.00,Wunderground v.1.13,2013-05-19 08:03:00,
2013-05-19 04:08:00,63.7,62.8,30.15,SW,227,0.0,0.0,97,0.00,,,0.00,Wunderground v.1.13,2013-05-19 08:08:00,
2013-05-19 04:13:00,63.7,62.8,30.15,SW,224,0.0,0.0,97,0.00,,,0.00,Wunderground v.1.13,2013-05-19 08:13:00,
2013-05-19 04:18:00,63.6,62.7,30.15,SW,223,0.0,0.0,97,0.00,,,0.00,Wunderground v.1.13,2013-05-19 08:18:00,
2013-05-19 04:23:00,63.6,62.7,30.15,SW,223,0.0,0.0,97,0.00,,,0.00,Wunderground v.1.13,2013-05-19 08:23:00,
2013-05-19 04:28:00,63.7,62.8,30.15,SW,216,0.0,2.0,97,0.00,,,0.00,Wunderground v.1.13,2013-05-19 08:28:00,
2013-05-19 04:33:00,63.8,62.9,30.15,SW,216,0.0,0.0,97,0.00,,,0.00,Wunderground v.1.13,2013-05-19 08:33:00,
2013-05-19 04:38:00,63.9,63.0,30.15,SW,216,0.0,1.0,97,0.00,,,0.00,Wunderground v.1.13,2013-05-19 08:38:00,
2013-05-19 04:43:00,64.0,63.1,30.15,SW,216,0.0,1.0,97,0.00,,,0.00,Wunderground v.1.13,2013-05-19 08:43:00,
2013-05-19 04:48:00,64.1,62.9,30.15,SW,215,0.0,2.0,96,0.00,,,0.00,Wunderground v.1.13,2013-05-19 08:48:00,
2013-05-19 04:53:00,64.1,62.9,30.15,SSW,200,0.0,4.0,96,0.00,,,0.00,Wunderground v.1.13,2013-05-19 08:53:00,
2013-05-19 04:59:00,64.1,62.9,30.16,SSW,205,0.0,2.0,96,0.00,,,0.00,Wunderground v.1.13,2013-05-19 08:59:00,
2013-05-19 05:04:00,64.2,63.0,30.16,SSW,201,0.0,2.0,96,0.00,,,0.00,Wunderground v.1.13,2013-05-19 09:04:00,
2013-05-19 05:09:00,64.1,62.9,30.17,SSW,201,0.0,0.0,96,0.00,,,0.01,Wunderground v.1.13,2013-05-19 09:09:00,
2013-05-19 05:14:00,64.1,62.9,30.18,SSW,201,0.0,0.0,96,0.11,,,0.02,Wunderground v.1.13,2013-05-19 09:14:00,
2013-05-19 05:19:00,64.1,62.9,30.17,SSW,201,0.0,0.0,96,0.09,,,0.02,Wunderground v.1.13,2013-05-19 09:19:00,
2013-05-19 05:24:00,64.0,62.5,30.16,South,175,0.0,3.0,95,0.05,,,0.02,Wunderground v.1.13,2013-05-19 09:24:00,
2013-05-19 05:29:00,64.0,62.5,30.16,South,170,1.0,2.0,95,0.04,,,0.02,Wunderground v.1.13,2013-05-19 09:29:00,
2013-05-19 05:34:00,64.1,62.6,30.16,South,177,0.0,1.0,95,0.00,,,0.02,Wunderground v.1.13,2013-05-19 09:34:00,
2013-05-19 05:39:00,64.1,62.3,30.17,South,177,0.0,1.0,94,0.00,,,0.02,Wunderground v.1.13,2013-05-19 09:39:00,
2013-05-19 05:44:00,64.2,62.4,30.17,South,178,0.0,1.0,94,0.00,,,0.02,Wunderground v.1.13,2013-05-19 09:44:00,
2013-05-19 05:49:00,64.2,62.7,30.17,South,178,0.0,0.0,95,0.00,,,0.02,Wunderground v.1.13,2013-05-19 09:49:00,
2013-05-19 05:54:00,64.1,62.6,30.16,South,178,0.0,0.0,95,0.00,,,0.02,Wunderground v.1.13,2013-05-19 09:54:00,
2013-05-19 05:59:00,64.0,62.5,30.16,South,178,0.0,1.0,95,0.00,,,0.03,Wunderground v.1.13,2013-05-19 09:59:00,
2013-05-19 06:04:00,63.9,62.4,30.17,SSE,148,2.0,2.0,95,0.40,,,0.06,Wunderground v.1.13,2013-05-19 10:04:00,
2013-05-19 06:09:00,63.8,62.6,30.17,SSE,148,0.0,1.0,96,0.55,,,0.13,Wunderground v.1.13,2013-05-19 10:09:00,
2013-05-19 06:14:00,63.7,62.5,30.17,SSW,195,0.0,3.0,96,0.41,,,0.20,Wunderground v.1.13,2013-05-19 10:14:00,
2013-05-19 06:19:00,63.6,62.4,30.17,South,182,0.0,3.0,96,0.14,,,0.21,Wunderground v.1.13,2013-05-19 10:19:00,
2013-05-19 06:24:00,63.5,62.6,30.19,South,182,0.0,0.0,97,0.07,,,0.21,Wunderground v.1.13,2013-05-19 10:24:00,
2013-05-19 06:29:00,63.5,62.6,30.19,South,182,0.0,0.0,97,0.69,,,0.24,Wunderground v.1.13,2013-05-19 10:29:00,
2013-05-19 06:34:00,63.4,62.5,30.18,South,182,0.0,0.0,97,0.84,,,0.35,Wunderground v.1.13,2013-05-19 10:34:00,
2013-05-19 06:39:00,63.3,62.4,30.20,South,182,0.0,0.0,97,0.23,,,0.38,Wunderground v.1.13,2013-05-19 10:39:00,
2013-05-19 06:44:00,63.2,62.3,30.20,South,182,0.0,0.0,97,0.12,,,0.39,Wunderground v.1.13,2013-05-19 10:44:00,
2013-05-19 06:49:00,63.2,62.3,30.21,South,182,0.0,0.0,97,0.10,,,0.39,Wunderground v.1.13,2013-05-19 10:49:00,
2013-05-19 06:54:00,63.1,62.2,30.20,South,182,0.0,1.0,97,0.06,,,0.40,Wunderground v.1.13,2013-05-19 10:54:00,
2013-05-19 06:59:00,63.0,62.1,30.20,SSW,205,0.0,1.0,97,0.06,,,0.40,Wunderground v.1.13,2013-05-19 10:59:00,
2013-05-19 07:04:00,63.0,62.1,30.21,SSW,205,0.0,0.0,97,0.08,,,0.41,Wunderground v.1.13,2013-05-19 11:04:00,
2013-05-19 07:09:00,62.9,62.0,30.21,SSW,205,0.0,0.0,97,0.49,,,0.44,Wunderground v.1.13,2013-05-19 11:09:00,
2013-05-19 07:14:00,62.8,61.9,30.20,South,179,1.0,2.0,97,0.63,,,0.50,Wunderground v.1.13,2013-05-19 11:14:00,
2013-05-19 07:19:00,62.7,61.8,30.21,SSE,168,0.0,4.0,97,0.30,,,0.52,Wunderground v.1.13,2013-05-19 11:19:00,
2013-05-19 07:24:00,62.6,62.0,30.21,South,170,0.0,2.0,98,0.15,,,0.53,Wunderground v.1.13,2013-05-19 11:24:00,
2013-05-19 07:29:00,62.5,61.6,30.21,South,170,0.0,1.0,97,0.07,,,0.53,Wunderground v.1.13,2013-05-19 11:29:00,
2013-05-19 07:34:00,62.4,61.5,30.20,South,170,0.0,2.0,97,0.79,,,0.56,Wunderground v.1.13,2013-05-19 11:34:00,
2013-05-19 07:39:00,62.4,61.5,30.20,SSW,195,0.0,5.0,97,0.19,,,0.57,Wunderground v.1.13,2013-05-19 11:39:00,
2013-05-19 07:44:00,62.4,61.5,30.21,SSW,195,0.0,0.0,97,0.24,,,0.58,Wunderground v.1.13,2013-05-19 11:44:00,
2013-05-19 07:49:00,62.4,61.8,30.21,SSW,195,0.0,0.0,98,0.12,,,0.59,Wunderground v.1.13,2013-05-19 11:49:00,
2013-05-19 07:54:00,62.5,61.9,30.20,SSW,195,0.0,1.0,98,0.06,,,0.59,Wunderground v.1.13,2013-05-19 11:54:00,
2013-05-19 07:59:00,62.4,61.8,30.20,SSW,197,1.0,1.0,98,0.04,,,0.59,Wunderground v.1.13,2013-05-19 11:59:00,
2013-05-19 08:04:00,62.5,61.9,30.21,SSW,197,0.0,1.0,98,0.00,,,0.59,Wunderground v.1.13,2013-05-19 12:04:00,
2013-05-19 08:09:00,62.5,61.9,30.21,SSW,195,0.0,2.0,98,0.00,,,0.59,Wunderground v.1.13,2013-05-19 12:09:00,
2013-05-19 08:14:00,62.7,62.1,30.21,SSW,195,0.0,0.0,98,0.00,,,0.59,Wunderground v.1.13,2013-05-19 12:14:00,
2013-05-19 08:19:00,62.8,62.2,30.21,South,191,0.0,2.0,98,0.00,,,0.59,Wunderground v.1.13,2013-05-19 12:19:00,
2013-05-19 08:24:00,62.9,62.3,30.22,South,191,0.0,1.0,98,0.00,,,0.59,Wunderground v.1.13,2013-05-19 12:24:00,
2013-05-19 08:29:00,63.0,62.4,30.22,South,191,0.0,0.0,98,0.00,,,0.59,Wunderground v.1.13,2013-05-19 12:29:00,
2013-05-19 08:34:00,63.1,62.5,30.22,South,191,0.0,0.0,98,0.00,,,0.59,Wunderground v.1.13,2013-05-19 12:34:00,
2013-05-19 08:39:00,63.2,62.6,30.22,South,191,0.0,0.0,98,0.00,,,0.59,Wunderground v.1.13,2013-05-19 12:39:00,
2013-05-19 08:44:00,63.3,62.7,30.22,South,191,0.0,0.0,98,0.00,,,0.59,Wunderground v.1.13,2013-05-19 12:44:00,
2013-05-19 08:49:00,63.3,62.7,30.22,South,191,0.0,0.0,98,0.00,,,0.59,Wunderground v.1.13,2013-05-19 12:49:00,
2013-05-19 08:54:00,63.4,62.8,30.22,South,191,0.0,0.0,98,0.00,,,0.59,Wunderground v.1.13,2013-05-19 12:54:00,
2013-05-19 08:59:00,63.6,63.0,30.22,South,190,0.0,2.0,98,0.00,,,0.59,Wunderground v.1.13,2013-05-19 12:59:00,
2013-05-19 09:04:00,63.8,63.2,30.21,South,190,0.0,1.0,98,0.00,,,0.59,Wunderground v.1.13,2013-05-19 13:04:00,
2013-05-19 09:09:00,64.0,63.4,30.21,South,190,2.0,2.0,98,0.00,,,0.59,Wunderground v.1.13,2013-05-19 13:09:00,
2013-05-19 09:14:00,64.3,63.7,30.21,South,190,0.0,1.0,98,0.00,,,0.59,Wunderground v.1.13,2013-05-19 13:14:00,
2013-05-19 09:19:00,64.5,63.9,30.20,South,190,0.0,1.0,98,0.00,,,0.59,Wunderground v.1.13,2013-05-19 13:19:00,
2013-05-19 09:24:00,64.8,64.2,30.20,South,190,0.0,2.0,98,0.00,,,0.59,Wunderground v.1.13,2013-05-19 13:24:00,
2013-05-19 09:29:00,64.9,64.3,30.20,NW,313,0.0,1.0,98,0.00,,,0.59,Wunderground v.1.13,2013-05-19 13:29:00,
2013-05-19 09:34:00,65.2,64.6,30.20,NW,313,0.0,1.0,98,0.00,,,0.59,Wunderground v.1.13,2013-05-19 13:34:00,
2013-05-19 09:40:00,65.2,64.6,30.21,NW,312,0.0,0.0,98,0.00,,,0.59,Wunderground v.1.13,2013-05-19 13:40:00,
2013-05-19 09:44:00,65.5,64.9,30.20,NW,306,0.0,1.0,98,0.00,,,0.59,Wunderground v.1.13,2013-05-19 13:44:00,
2013-05-19 09:49:00,65.6,65.0,30.20,NW,306,0.0,0.0,98,0.00,,,0.59,Wunderground v.1.13,2013-05-19 13:49:00,
2013-05-19 09:54:00,65.8,64.9,30.20,NW,306,0.0,3.0,97,0.00,,,0.59,Wunderground v.1.13,2013-05-19 13:54:00,
2013-05-19 09:59:00,66.1,65.2,30.20,NW,306,0.0,1.0,97,0.00,,,0.59,Wunderground v.1.13,2013-05-19 13:59:00,
2013-05-19 10:04:00,66.6,66.0,30.21,NW,306,0.0,0.0,98,0.00,,,0.59,Wunderground v.1.13,2013-05-19 14:04:00,
2013-05-19 10:09:00,66.7,65.8,30.21,NW,306,0.0,1.0,97,0.00,,,0.59,Wunderground v.1.13,2013-05-19 14:09:00,
2013-05-19 10:14:00,67.1,65.9,30.20,NW,306,0.0,0.0,96,0.00,,,0.59,Wunderground v.1.13,2013-05-19 14:14:00,
2013-05-19 10:20:00,67.4,66.2,30.20,NW,306,0.0,0.0,96,0.00,,,0.59,Wunderground v.1.13,2013-05-19 14:20:00,
2013-05-19 10:25:00,67.1,65.0,30.20,NW,306,0.0,0.0,93,0.00,,,0.59,Wunderground v.1.13,2013-05-19 14:25:00,
2013-05-19 10:30:00,67.0,65.2,30.20,NW,306,0.0,0.0,94,0.00,,,0.59,Wunderground v.1.13,2013-05-19 14:30:00,
2013-05-19 10:35:00,67.0,65.5,30.20,NW,306,0.0,0.0,95,0.00,,,0.59,Wunderground v.1.13,2013-05-19 14:35:00,
2013-05-19 10:40:00,67.0,65.5,30.20,NW,306,0.0,0.0,95,0.00,,,0.59,Wunderground v.1.13,2013-05-19 14:40:00,
2013-05-19 10:45:00,66.9,65.4,30.20,NW,306,0.0,0.0,95,0.00,,,0.59,Wunderground v.1.13,2013-05-19 14:45:00,
2013-05-19 10:50:00,66.7,64.9,30.19,NW,306,0.0,0.0,94,0.00,,,0.59,Wunderground v.1.13,2013-05-19 14:50:00,
2013-05-19 10:55:00,66.5,64.7,30.19,NW,306,0.0,0.0,94,0.00,,,0.59,Wunderground v.1.13,2013-05-19 14:55:00,
2013-05-19 11:00:00,66.4,64.6,30.19,NW,306,0.0,0.0,94,0.00,,,0.59,Wunderground v.1.13,2013-05-19 15:00:00,
2013-05-19 11:05:00,66.2,64.4,30.19,NW,306,0.0,0.0,94,0.00,,,0.59,Wunderground v.1.13,2013-05-19 15:05:00,
2013-05-19 11:10:00,66.1,64.6,30.19,NW,306,0.0,0.0,95,0.00,,,0.59,Wunderground v.1.13,2013-05-19 15:10:00,
2013-05-19 11:15:00,66.0,64.5,30.19,NW,306,0.0,0.0,95,0.00,,,0.59,Wunderground v.1.13,2013-05-19 15:15:00,
2013-05-19 11:20:00,66.0,64.5,30.18,NW,306,0.0,0.0,95,0.00,,,0.59,Wunderground v.1.13,2013-05-19 15:20:00,
2013-05-19 11:25:00,65.9,64.4,30.18,NW,306,0.0,0.0,95,0.00,,,0.59,Wunderground v.1.13,2013-05-19 15:25:00,
2013-05-19 11:30:00,65.8,64.6,30.18,NW,306,0.0,0.0,96,0.00,,,0.59,Wunderground v.1.13,2013-05-19 15:30:00,
2013-05-19 11:35:00,65.8,64.6,30.18,NW,306,0.0,0.0,96,0.00,,,0.59,Wunderground v.1.13,2013-05-19 15:35:00,
2013-05-19 11:40:00,65.5,64.0,30.18,NW,306,0.0,0.0,95,0.00,,,0.59,Wunderground v.1.13,2013-05-19 15:40:00,
2013-05-19 11:45:00,65.4,63.6,30.19,South,176,0.0,0.0,94,0.00,,,0.59,Wunderground v.1.13,2013-05-19 15:45:00,
2013-05-19 11:50:00,65.4,63.9,30.20,South,177,0.0,0.0,95,0.00,,,0.59,Wunderground v.1.13,2013-05-19 15:50:00,
2013-05-19 11:55:00,65.3,63.8,30.21,South,177,0.0,0.0,95,0.00,,,0.59,Wunderground v.1.13,2013-05-19 15:55:00,
2013-05-19 12:00:00,65.2,63.7,30.21,South,171,0.0,1.0,95,0.00,,,0.59,Wunderground v.1.13,2013-05-19 16:00:00,
2013-05-19 12:05:00,65.1,63.6,30.21,South,184,0.0,0.0,95,0.00,,,0.59,Wunderground v.1.13,2013-05-19 16:05:00,
2013-05-19 12:10:00,65.1,63.6,30.21,South,184,0.0,0.0,95,0.00,,,0.59,Wunderground v.1.13,2013-05-19 16:10:00,
2013-05-19 12:15:00,65.0,63.8,30.21,South,184,0.0,1.0,96,0.00,,,0.59,Wunderground v.1.13,2013-05-19 16:15:00,
2013-05-19 12:20:00,64.9,63.4,30.20,South,184,0.0,0.0,95,0.00,,,0.59,Wunderground v.1.13,2013-05-19 16:20:00,
2013-05-19 12:26:00,64.8,63.3,30.20,South,182,0.0,0.0,95,0.00,,,0.59,Wunderground v.1.13,2013-05-19 16:26:00,
2013-05-19 12:31:00,64.9,63.4,30.20,South,182,0.0,0.0,95,0.00,,,0.59,Wunderground v.1.13,2013-05-19 16:31:00,
2013-05-19 12:36:00,64.9,63.4,30.19,SSE,164,0.0,1.0,95,0.00,,,0.59,Wunderground v.1.13,2013-05-19 16:36:00,
2013-05-19 12:41:00,64.9,63.4,30.20,SSE,164,0.0,0.0,95,0.00,,,0.59,Wunderground v.1.13,2013-05-19 16:41:00,
2013-05-19 12:46:00,65.0,63.5,30.20,SSE,164,0.0,0.0,95,0.00,,,0.59,Wunderground v.1.13,2013-05-19 16:46:00,
2013-05-19 12:51:00,65.2,63.7,30.20,SSE,164,0.0,0.0,95,0.00,,,0.59,Wunderground v.1.13,2013-05-19 16:51:00,
2013-05-19 12:56:00,65.3,64.1,30.21,SSE,164,0.0,1.0,96,0.00,,,0.59,Wunderground v.1.13,2013-05-19 16:56:00,
2013-05-19 13:01:00,65.4,63.6,30.21,South,180,0.0,0.0,94,0.00,,,0.59,Wunderground v.1.13,2013-05-19 17:01:00,
2013-05-19 13:06:00,65.7,64.2,30.21,South,180,0.0,0.0,95,0.00,,,0.59,Wunderground v.1.13,2013-05-19 17:06:00,
2013-05-19 13:11:00,65.8,64.0,30.21,South,181,0.0,0.0,94,0.00,,,0.59,Wunderground v.1.13,2013-05-19 17:11:00,
2013-05-19 13:16:00,66.0,63.9,30.22,South,181,0.0,0.0,93,0.00,,,0.59,Wunderground v.1.13,2013-05-19 17:16:00,
2013-05-19 13:21:00,66.1,64.3,30.21,South,181,0.0,0.0,94,0.00,,,0.59,Wunderground v.1.13,2013-05-19 17:21:00,
2013-05-19 13:26:00,66.1,64.0,30.21,South,181,0.0,0.0,93,0.00,,,0.59,Wunderground v.1.13,2013-05-19 17:26:00,
2013-05-19 13:31:00,66.1,63.7,30.22,South,181,0.0,0.0,92,0.00,,,0.59,Wunderground v.1.13,2013-05-19 17:31:00,
2013-05-19 13:36:00,66.0,63.9,30.23,South,181,0.0,0.0,93,0.00,,,0.59,Wunderground v.1.13,2013-05-19 17:36:00,
2013-05-19 13:41:00,65.9,63.8,30.23,South,181,0.0,0.0,93,0.00,,,0.59,Wunderground v.1.13,2013-05-19 17:41:00,
2013-05-19 13:46:00,65.8,64.0,30.23,South,181,0.0,0.0,94,0.00,,,0.59,Wunderground v.1.13,2013-05-19 17:46:00,
2013-05-19 13:51:00,65.7,63.9,30.23,South,181,0.0,0.0,94,0.00,,,0.60,Wunderground v.1.13,2013-05-19 17:51:00,
2013-05-19 13:56:00,65.5,63.4,30.23,South,181,0.0,0.0,93,0.00,,,0.60,Wunderground v.1.13,2013-05-19 17:56:00,
2013-05-19 14:01:00,65.3,63.5,30.23,South,181,0.0,0.0,94,0.00,,,0.60,Wunderground v.1.13,2013-05-19 18:01:00,
2013-05-19 14:06:00,65.2,63.4,30.23,South,181,0.0,0.0,94,0.04,,,0.61,Wunderground v.1.13,2013-05-19 18:06:00,
2013-05-19 14:11:00,65.1,63.6,30.24,South,181,0.0,0.0,95,0.12,,,0.62,Wunderground v.1.13,2013-05-19 18:11:00,
2013-05-19 14:16:00,65.0,63.5,30.24,South,181,0.0,0.0,95,0.21,,,0.64,Wunderground v.1.13,2013-05-19 18:16:00,
2013-05-19 14:21:00,64.9,63.4,30.24,South,181,0.0,1.0,95,0.14,,,0.65,Wunderground v.1.13,2013-05-19 18:21:00,
2013-05-19 14:27:00,64.8,63.6,30.23,South,181,0.0,0.0,96,0.16,,,0.67,Wunderground v.1.13,2013-05-19 18:27:00,
2013-05-19 14:32:00,64.7,63.5,30.23,South,181,0.0,0.0,96,0.24,,,0.69,Wunderground v.1.13,2013-05-19 18:32:00,
2013-05-19 14:37:00,64.8,63.6,30.23,South,181,0.0,0.0,96,0.31,,,0.71,Wunderground v.1.13,2013-05-19 18:37:00,
2013-05-19 14:42:00,64.8,63.9,30.23,South,181,0.0,0.0,97,0.26,,,0.74,Wunderground v.1.13,2013-05-19 18:42:00,
2013-05-19 14:47:00,64.7,63.8,30.21,South,181,0.0,0.0,97,0.14,,,0.75,Wunderground v.1.13,2013-05-19 18:47:00,
2013-05-19 14:52:00,64.6,63.7,30.19,South,181,0.0,0.0,97,0.27,,,0.77,Wunderground v.1.13,2013-05-19 18:52:00,
2013-05-19 14:57:00,64.4,63.5,30.20,South,175,0.0,1.0,97,0.09,,,0.77,Wunderground v.1.13,2013-05-19 18:57:00,
2013-05-19 15:02:00,64.3,63.4,30.20,SSW,204,0.0,0.0,97,0.09,,,0.78,Wunderground v.1.13,2013-05-19 19:02:00,
2013-05-19 15:07:00,64.2,63.3,30.21,SSW,204,0.0,0.0,97,0.07,,,0.79,Wunderground v.1.13,2013-05-19 19:07:00,
2013-05-19 15:12:00,64.1,63.2,30.20,SSW,204,0.0,0.0,97,0.07,,,0.79,Wunderground v.1.13,2013-05-19 19:12:00,
2013-05-19 15:17:00,64.0,63.1,30.21,SSW,204,0.0,0.0,97,0.06,,,0.80,Wunderground v.1.13,2013-05-19 19:17:00,
2013-05-19 15:22:00,64.0,63.1,30.20,SSW,204,0.0,0.0,97,0.06,,,0.80,Wunderground v.1.13,2013-05-19 19:22:00,
2013-05-19 15:27:00,63.9,63.0,30.21,SSW,204,0.0,0.0,97,0.06,,,0.80,Wunderground v.1.13,2013-05-19 19:27:00,
2013-05-19 15:32:00,63.9,63.0,30.21,SSW,204,0.0,0.0,97,0.04,,,0.80,Wunderground v.1.13,2013-05-19 19:32:00,
2013-05-19 15:37:00,63.8,62.9,30.22,SSW,204,0.0,0.0,97,0.00,,,0.80,Wunderground v.1.13,2013-05-19 19:37:00,
2013-05-19 15:42:00,63.8,62.9,30.22,SSW,204,0.0,0.0,97,0.00,,,0.81,Wunderground v.1.13,2013-05-19 19:42:00,
2013-05-19 15:47:00,63.9,63.3,30.22,SSW,204,0.0,0.0,98,0.00,,,0.81,Wunderground v.1.13,2013-05-19 19:47:00,
2013-05-19 15:52:00,64.0,63.4,30.22,SSW,204,0.0,0.0,98,0.00,,,0.81,Wunderground v.1.13,2013-05-19 19:52:00,
2013-05-19 15:58:00,64.1,63.5,30.22,SSW,204,0.0,0.0,98,0.00,,,0.81,Wunderground v.1.13,2013-05-19 19:58:00,
2013-05-19 16:03:00,64.1,63.5,30.22,SSW,204,0.0,0.0,98,0.00,,,0.82,Wunderground v.1.13,2013-05-19 20:03:00,
2013-05-19 16:08:00,64.0,63.4,30.22,SSW,204,0.0,1.0,98,0.00,,,0.82,Wunderground v.1.13,2013-05-19 20:08:00,
2013-05-19 16:13:00,64.0,63.4,30.21,SSW,204,0.0,0.0,98,0.00,,,0.82,Wunderground v.1.13,2013-05-19 20:13:00,
2013-05-19 16:18:00,63.9,63.3,30.20,SSW,204,0.0,0.0,98,0.00,,,0.82,Wunderground v.1.13,2013-05-19 20:18:00,
2013-05-19 16:23:00,63.8,63.2,30.19,SSW,204,0.0,0.0,98,0.00,,,0.83,Wunderground v.1.13,2013-05-19 20:23:00,
2013-05-19 16:28:00,63.8,63.2,30.18,SSW,204,0.0,0.0,98,0.00,,,0.83,Wunderground v.1.13,2013-05-19 20:28:00,
2013-05-19 16:33:00,63.8,63.2,30.18,SSW,204,0.0,0.0,98,0.00,,,0.83,Wunderground v.1.13,2013-05-19 20:33:00,
2013-05-19 16:38:00,63.9,63.3,30.17,SSW,204,0.0,0.0,98,0.05,,,0.84,Wunderground v.1.13,2013-05-19 20:38:00,
2013-05-19 16:43:00,64.0,63.4,30.15,SSW,204,0.0,0.0,98,0.05,,,0.84,Wunderground v.1.13,2013-05-19 20:43:00,
2013-05-19 16:48:00,64.3,63.7,30.14,SSW,204,0.0,0.0,98,0.04,,,0.84,Wunderground v.1.13,2013-05-19 20:48:00,
2013-05-19 16:53:00,64.4,63.8,30.15,SSW,204,0.0,0.0,98,0.00,,,0.84,Wunderground v.1.13,2013-05-19 20:53:00,
2013-05-19 16:58:00,64.6,64.0,30.15,SSW,204,0.0,0.0,98,0.00,,,0.84,Wunderground v.1.13,2013-05-19 20:58:00,
2013-05-19 17:03:00,64.8,64.2,30.15,SSW,204,0.0,0.0,98,0.00,,,0.84,Wunderground v.1.13,2013-05-19 21:03:00,
2013-05-19 17:08:00,64.9,64.3,30.15,SSW,204,0.0,0.0,98,0.00,,,0.84,Wunderground v.1.13,2013-05-19 21:08:00,
2013-05-19 17:13:00,65.0,64.4,30.16,SSW,204,0.0,0.0,98,0.00,,,0.84,Wunderground v.1.13,2013-05-19 21:13:00,
2013-05-19 17:18:00,64.9,64.3,30.16,SSE,161,0.0,3.0,98,0.00,,,0.84,Wunderground v.1.13,2013-05-19 21:18:00,
2013-05-19 17:23:00,64.9,64.3,30.15,SSE,161,0.0,0.0,98,0.00,,,0.84,Wunderground v.1.13,2013-05-19 21:23:00,
2013-05-19 17:28:00,64.8,64.2,30.15,SSE,161,0.0,1.0,98,0.00,,,0.84,Wunderground v.1.13,2013-05-19 21:28:00,
2013-05-19 17:33:00,64.6,64.0,30.15,SSE,161,0.0,0.0,98,0.00,,,0.84,Wunderground v.1.13,2013-05-19 21:33:00,
2013-05-19 17:38:00,64.5,63.9,30.15,SSE,161,0.0,0.0,98,0.00,,,0.84,Wunderground v.1.13,2013-05-19 21:38:00,
2013-05-19 17:43:00,64.4,63.8,30.14,SSE,161,0.0,0.0,98,0.00,,,0.84,Wunderground v.1.13,2013-05-19 21:43:00,
2013-05-19 17:48:00,64.3,63.7,30.13,SSE,161,0.0,0.0,98,0.00,,,0.84,Wunderground v.1.13,2013-05-19 21:48:00,
2013-05-19 17:53:00,63.9,63.0,30.10,SSE,161,0.0,0.0,97,0.00,,,0.84,Wunderground v.1.13,2013-05-19 21:53:00,
2013-05-19 17:58:00,63.9,63.0,30.12,SSE,161,0.0,0.0,97,0.00,,,0.84,Wunderground v.1.13,2013-05-19 21:58:00,
2013-05-19 18:03:00,63.6,62.7,30.14,NNE,17,0.0,3.0,97,0.00,,,0.84,Wunderground v.1.13,2013-05-19 22:03:00,
2013-05-19 18:08:00,63.5,62.9,30.13,NNE,19,0.0,2.0,98,0.00,,,0.84,Wunderground v.1.13,2013-05-19 22:08:00,
2013-05-19 18:13:00,63.5,62.9,30.13,NNE,19,0.0,1.0,98,0.00,,,0.84,Wunderground v.1.13,2013-05-19 22:13:00,
2013-05-19 18:18:00,63.2,62.6,30.14,NNE,19,1.0,2.0,98,0.00,,,0.84,Wunderground v.1.13,2013-05-19 22:18:00,
2013-05-19 18:23:00,63.0,62.1,30.13,NNE,19,0.0,2.0,97,0.00,,,0.84,Wunderground v.1.13,2013-05-19 22:23:00,
2013-05-19 18:28:00,62.9,62.0,30.14,NNE,19,0.0,0.0,97,0.00,,,0.84,Wunderground v.1.13,2013-05-19 22:28:00,
2013-05-19 18:33:00,62.8,61.9,30.14,NNE,19,0.0,0.0,97,0.00,,,0.84,Wunderground v.1.13,2013-05-19 22:33:00,
2013-05-19 18:38:00,62.7,61.8,30.14,NNE,19,0.0,1.0,97,0.00,,,0.84,Wunderground v.1.13,2013-05-19 22:38:00,
2013-05-19 18:43:00,62.6,61.7,30.14,NNE,19,0.0,0.0,97,0.00,,,0.84,Wunderground v.1.13,2013-05-19 22:43:00,
2013-05-19 18:48:00,62.5,61.6,30.14,NNE,19,0.0,0.0,97,0.00,,,0.84,Wunderground v.1.13,2013-05-19 22:48:00,
2013-05-19 18:53:00,62.4,61.5,30.13,NNE,19,0.0,0.0,97,0.00,,,0.84,Wunderground v.1.13,2013-05-19 22:53:00,
2013-05-19 18:59:00,62.5,61.9,30.14,NNE,19,0.0,0.0,98,0.00,,,0.84,Wunderground v.1.13,2013-05-19 22:59:00,
2013-05-19 19:04:00,62.4,61.8,30.14,NNE,19,0.0,0.0,98,0.00,,,0.84,Wunderground v.1.13,2013-05-19 23:04:00,
2013-05-19 19:09:00,62.5,61.9,30.14,NNE,19,0.0,0.0,98,0.00,,,0.84,Wunderground v.1.13,2013-05-19 23:09:00,
2013-05-19 19:13:00,62.4,61.8,30.13,South,190,0.0,3.0,98,0.00,,,0.84,Wunderground v.1.13,2013-05-19 23:13:00,
2013-05-19 19:19:00,62.4,61.8,30.14,South,174,0.0,2.0,98,0.00,,,0.84,Wunderground v.1.13,2013-05-19 23:19:00,
2013-05-19 19:24:00,62.4,61.8,30.14,South,174,0.0,0.0,98,0.00,,,0.84,Wunderground v.1.13,2013-05-19 23:24:00,
2013-05-19 19:29:00,62.4,61.8,30.14,South,174,0.0,1.0,98,0.00,,,0.84,Wunderground v.1.13,2013-05-19 23:29:00,
2013-05-19 19:34:00,62.4,61.8,30.14,South,175,0.0,0.0,98,0.00,,,0.84,Wunderground v.1.13,2013-05-19 23:34:00,
2013-05-19 19:39:00,62.4,61.8,30.15,South,175,0.0,1.0,98,0.00,,,0.84,Wunderground v.1.13,2013-05-19 23:39:00,
2013-05-19 19:44:00,62.3,61.7,30.15,South,175,0.0,0.0,98,0.00,,,0.84,Wunderground v.1.13,2013-05-19 23:44:00,
2013-05-19 19:49:00,62.3,61.7,30.16,South,175,0.0,0.0,98,0.00,,,0.84,Wunderground v.1.13,2013-05-19 23:49:00,
2013-05-19 19:54:00,62.2,61.6,30.17,South,175,0.0,0.0,98,0.00,,,0.84,Wunderground v.1.13,2013-05-19 23:54:00,
2013-05-19 19:59:00,62.1,61.5,30.18,South,175,0.0,0.0,98,0.00,,,0.84,Wunderground v.1.13,2013-05-19 23:59:00,
2013-05-19 20:04:00,62.1,61.5,30.18,South,175,0.0,0.0,98,0.00,,,0.84,Wunderground v.1.13,2013-05-20 00:04:00,
2013-05-19 20:09:00,62.0,61.4,30.17,South,175,0.0,0.0,98,0.00,,,0.84,Wunderground v.1.13,2013-05-20 00:09:00,
2013-05-19 20:14:00,62.0,61.4,30.17,South,175,0.0,0.0,98,0.00,,,0.84,Wunderground v.1.13,2013-05-20 00:14:00,
2013-05-19 20:19:00,61.9,61.3,30.16,South,175,0.0,0.0,98,0.00,,,0.84,Wunderground v.1.13,2013-05-20 00:19:00,
2013-05-19 20:24:00,61.8,61.2,30.16,South,175,0.0,0.0,98,0.00,,,0.84,Wunderground v.1.13,2013-05-20 00:24:00,
2013-05-19 20:29:00,61.7,61.1,30.16,South,175,0.0,0.0,98,0.00,,,0.84,Wunderground v.1.13,2013-05-20 00:29:00,
2013-05-19 20:34:00,61.5,60.9,30.16,South,175,0.0,0.0,98,0.00,,,0.84,Wunderground v.1.13,2013-05-20 00:34:00,
2013-05-19 20:39:00,61.3,60.4,30.16,South,175,0.0,0.0,97,0.00,,,0.84,Wunderground v.1.13,2013-05-20 00:39:00,
2013-05-19 20:44:00,61.3,60.7,30.17,South,175,0.0,0.0,98,0.00,,,0.84,Wunderground v.1.13,2013-05-20 00:44:00,
2013-05-19 20:49:00,61.3,60.7,30.17,South,175,0.0,0.0,98,0.00,,,0.84,Wunderground v.1.13,2013-05-20 00:49:00,
2013-05-19 20:55:00,61.2,60.6,30.17,South,175,0.0,0.0,98,0.00,,,0.84,Wunderground v.1.13,2013-05-20 00:55:00,
2013-05-19 21:00:00,61.2,60.6,30.16,South,175,0.0,0.0,98,0.00,,,0.84,Wunderground v.1.13,2013-05-20 01:00:00,
2013-05-19 21:05:00,61.2,60.6,30.16,South,175,0.0,0.0,98,0.00,,,0.84,Wunderground v.1.13,2013-05-20 01:05:00,
2013-05-19 21:10:00,61.2,60.6,30.16,South,175,0.0,0.0,98,0.00,,,0.84,Wunderground v.1.13,2013-05-20 01:10:00,
2013-05-19 21:15:00,61.3,60.7,30.16,South,175,0.0,0.0,98,0.00,,,0.84,Wunderground v.1.13,2013-05-20 01:15:00,
2013-05-19 21:20:00,61.4,60.8,30.16,South,175,0.0,0.0,98,0.00,,,0.84,Wunderground v.1.13,2013-05-20 01:20:00,
2013-05-19 21:25:00,61.4,60.8,30.17,South,175,0.0,0.0,98,0.00,,,0.84,Wunderground v.1.13,2013-05-20 01:25:00,
2013-05-19 21:30:00,61.4,60.8,30.17,South,175,0.0,0.0,98,0.00,,,0.84,Wunderground v.1.13,2013-05-20 01:30:00,
2013-05-19 21:35:00,61.3,60.7,30.17,South,175,0.0,0.0,98,0.00,,,0.84,Wunderground v.1.13,2013-05-20 01:35:00,
2013-05-19 21:40:00,61.3,60.7,30.17,South,175,0.0,0.0,98,0.00,,,0.84,Wunderground v.1.13,2013-05-20 01:40:00,
2013-05-19 21:45:00,61.2,60.6,30.18,South,175,0.0,0.0,98,0.00,,,0.84,Wunderground v.1.13,2013-05-20 01:45:00,
2013-05-19 21:50:00,61.2,60.6,30.18,South,175,0.0,0.0,98,0.00,,,0.84,Wunderground v.1.13,2013-05-20 01:50:00,
2013-05-19 21:55:00,61.1,60.5,30.18,South,175,0.0,0.0,98,0.00,,,0.84,Wunderground v.1.13,2013-05-20 01:55:00,
2013-05-19 22:00:00,61.1,60.5,30.18,South,175,0.0,0.0,98,0.00,,,0.84,Wunderground v.1.13,2013-05-20 02:00:00,
2013-05-19 22:05:00,61.0,60.4,30.18,South,175,0.0,0.0,98,0.00,,,0.84,Wunderground v.1.13,2013-05-20 02:05:00,
2013-05-19 22:10:00,61.0,60.4,30.18,South,175,0.0,0.0,98,0.00,,,0.84,Wunderground v.1.13,2013-05-20 02:10:00,
2013-05-19 22:15:00,61.0,60.4,30.17,South,175,0.0,0.0,98,0.00,,,0.84,Wunderground v.1.13,2013-05-20 02:15:00,
2013-05-19 22:20:00,61.0,60.4,30.18,South,175,0.0,0.0,98,0.00,,,0.84,Wunderground v.1.13,2013-05-20 02:20:00,
2013-05-19 22:25:00,60.9,60.3,30.18,South,175,0.0,0.0,98,0.00,,,0.84,Wunderground v.1.13,2013-05-20 02:25:00,
2013-05-19 22:30:00,60.8,60.2,30.19,South,175,0.0,0.0,98,0.00,,,0.84,Wunderground v.1.13,2013-05-20 02:30:00,
2013-05-19 22:35:00,60.8,60.2,30.19,South,175,0.0,0.0,98,0.00,,,0.84,Wunderground v.1.13,2013-05-20 02:35:00,
2013-05-19 22:40:00,60.7,60.1,30.19,South,175,0.0,0.0,98,0.00,,,0.84,Wunderground v.1.13,2013-05-20 02:40:00,
2013-05-19 22:45:00,60.6,60.0,30.19,South,175,0.0,0.0,98,0.00,,,0.84,Wunderground v.1.13,2013-05-20 02:45:00,
2013-05-19 22:50:00,60.6,60.0,30.19,South,175,0.0,0.0,98,0.00,,,0.84,Wunderground v.1.13,2013-05-20 02:50:00,
2013-05-19 22:55:00,60.6,60.0,30.19,South,175,0.0,0.0,98,0.00,,,0.84,Wunderground v.1.13,2013-05-20 02:55:00,
2013-05-19 23:00:00,60.6,60.0,30.19,South,175,0.0,0.0,98,0.00,,,0.84,Wunderground v.1.13,2013-05-20 03:00:00,
2013-05-19 23:06:00,60.5,59.9,30.19,South,175,0.0,0.0,98,0.00,,,0.84,Wunderground v.1.13,2013-05-20 03:06:00,
2013-05-19 23:11:00,60.5,59.9,30.19,South,175,0.0,0.0,98,0.00,,,0.84,Wunderground v.1.13,2013-05-20 03:11:00,
2013-05-19 23:16:00,60.5,59.9,30.19,South,175,0.0,0.0,98,0.00,,,0.84,Wunderground v.1.13,2013-05-20 03:16:00,
2013-05-19 23:21:00,60.5,59.9,30.18,South,175,0.0,0.0,98,0.00,,,0.84,Wunderground v.1.13,2013-05-20 03:21:00,
2013-05-19 23:26:00,60.5,60.2,30.18,South,175,0.0,0.0,99,0.00,,,0.84,Wunderground v.1.13,2013-05-20 03:26:00,
2013-05-19 23:31:00,60.5,60.2,30.18,South,175,0.0,1.0,99,0.00,,,0.84,Wunderground v.1.13,2013-05-20 03:31:00,
2013-05-19 23:36:00,60.5,60.2,30.18,South,175,0.0,0.0,99,0.00,,,0.84,Wunderground v.1.13,2013-05-20 03:36:00,
2013-05-19 23:41:00,60.5,60.2,30.18,West,279,0.0,0.0,99,0.00,,,0.84,Wunderground v.1.13,2013-05-20 03:41:00,
2013-05-19 23:46:00,60.5,60.2,30.18,SW,233,0.0,0.0,99,0.00,,,0.84,Wunderground v.1.13,2013-05-20 03:46:00,
2013-05-19 23:51:00,60.5,60.2,30.18,SW,233,0.0,0.0,99,0.00,,,0.84,Wunderground v.1.13,2013-05-20 03:51:00,
2013-05-19 23:56:00,60.4,59.8,30.18,SW,233,0.0,0.0,98,0.00,,,0.84,Wunderground v.1.13,2013-05-20 03:56:00,